createdAt,value
2023-08-12T00:00:57.047Z,3.10
2023-08-12T00:03:43.256Z,2.88
2023-08-12T00:06:29.306Z,2.85
2023-08-12T00:09:16.787Z,3.15
2023-08-12T00:12:02.600Z,3.28
2023-08-12T00:14:47.914Z,2.97
2023-08-12T00:17:33.620Z,2.88
2023-08-12T00:20:19.632Z,3.00
2023-08-12T00:23:05.587Z,2.60
2023-08-12T00:25:51.176Z,3.00
2023-08-12T00:28:36.184Z,3.35
2023-08-12T00:31:21.536Z,2.72
2023-08-12T00:34:06.866Z,2.60
2023-08-12T00:36:52.079Z,2.80
2023-08-12T00:39:38.096Z,2.92
2023-08-12T00:42:23.094Z,3.03
2023-08-12T00:45:14.175Z,2.70
2023-08-12T00:47:59.631Z,2.63
2023-08-12T00:50:46.466Z,2.90
2023-08-12T00:53:31.721Z,2.47
2023-08-12T00:56:18.293Z,2.80
2023-08-12T00:59:08.701Z,3.40
2023-08-12T01:01:54.122Z,2.83
2023-08-12T01:04:39.865Z,3.42
2023-08-12T01:07:24.932Z,2.90
2023-08-12T01:10:15.467Z,2.70
2023-08-12T01:13:31.160Z,2.58
2023-08-12T01:16:19.418Z,2.88
2023-08-12T01:19:08.175Z,3.00
2023-08-12T01:21:55.481Z,2.80
2023-08-12T01:24:45.704Z,2.70
2023-08-12T01:27:31.020Z,2.80
2023-08-12T01:30:17.626Z,2.95
2023-08-12T01:33:09.509Z,2.70
2023-08-12T01:36:02.529Z,2.85
2023-08-12T01:41:33.783Z,2.60
2023-08-12T01:44:19.618Z,2.85
2023-08-12T01:47:05.481Z,2.60
2023-08-12T01:49:50.544Z,2.80
2023-08-12T01:52:36.154Z,2.70
2023-08-12T01:55:21.501Z,3.40
2023-08-12T01:58:06.962Z,2.80
2023-08-12T02:00:52.291Z,2.47
2023-08-12T02:03:37.544Z,2.75
2023-08-12T02:06:23.474Z,2.85
2023-08-12T02:09:08.795Z,3.08
2023-08-12T02:11:54.520Z,3.00
2023-08-12T02:14:39.960Z,3.00
2023-08-12T02:17:25.313Z,3.10
2023-08-12T02:20:11.477Z,2.92
2023-08-12T02:22:56.929Z,3.13
2023-08-12T02:25:41.978Z,3.00
2023-08-12T02:28:27.753Z,3.35
2023-08-12T02:31:13.205Z,3.05
2023-08-12T02:33:58.423Z,3.08
2023-08-12T02:36:44.148Z,3.20
2023-08-12T02:39:29.640Z,2.97
2023-08-12T02:42:15.471Z,3.15
2023-08-12T02:45:01.144Z,3.13
2023-08-12T02:47:47.098Z,3.10
2023-08-12T02:50:32.514Z,3.20
2023-08-12T02:53:18.844Z,3.15
2023-08-12T02:56:04.067Z,3.00
2023-08-12T02:58:49.985Z,3.45
2023-08-12T03:01:35.749Z,2.90
2023-08-12T03:04:21.394Z,3.10
2023-08-12T03:07:06.640Z,3.45
2023-08-12T03:09:52.026Z,3.20
2023-08-12T03:12:37.869Z,3.38
2023-08-12T03:15:23.495Z,3.03
2023-08-12T03:18:08.892Z,3.13
2023-08-12T03:20:54.384Z,3.20
2023-08-12T03:23:40.233Z,2.75
2023-08-12T03:26:25.717Z,2.95
2023-08-12T03:29:11.606Z,3.13
2023-08-12T03:31:57.148Z,3.20
2023-08-12T03:34:42.417Z,3.20
2023-08-12T03:37:28.226Z,3.20
2023-08-12T03:40:13.826Z,3.70
2023-08-12T03:42:59.285Z,3.35
2023-08-12T03:45:45.837Z,2.90
2023-08-12T03:51:17.097Z,3.10
2023-08-12T03:54:02.564Z,3.40
2023-08-12T03:56:47.871Z,2.92
2023-08-12T03:59:33.526Z,3.00
2023-08-12T04:02:18.912Z,3.30
2023-08-12T04:05:04.079Z,3.33
2023-08-12T04:07:50.013Z,2.80
2023-08-12T04:10:35.373Z,3.08
2023-08-12T04:13:21.022Z,3.25
2023-08-12T04:16:06.045Z,3.20
2023-08-12T04:18:51.881Z,3.22
2023-08-12T04:21:37.170Z,3.17
2023-08-12T04:24:22.967Z,3.00
2023-08-12T04:27:08.453Z,3.38
2023-08-12T04:29:53.996Z,3.05
2023-08-12T04:32:39.670Z,2.97
2023-08-12T04:35:24.906Z,3.22
2023-08-12T04:38:10.648Z,3.17
2023-08-12T04:40:56.217Z,3.53
2023-08-12T04:43:41.797Z,3.22
2023-08-12T04:46:26.912Z,3.20
2023-08-12T04:49:11.835Z,3.75
2023-08-12T04:51:56.899Z,4.13
2023-08-12T04:54:42.260Z,3.22
2023-08-12T04:57:27.837Z,3.60
2023-08-12T05:00:13.886Z,3.13
2023-08-12T05:02:59.547Z,3.50
2023-08-12T05:05:45.038Z,3.60
2023-08-12T05:08:30.125Z,3.65
2023-08-12T05:11:15.415Z,3.22
2023-08-12T05:14:00.459Z,3.40
2023-08-12T05:16:45.773Z,3.40
2023-08-12T05:19:31.027Z,3.53
2023-08-12T05:22:17.356Z,3.20
2023-08-12T05:25:03.222Z,3.03
2023-08-12T05:27:48.186Z,3.38
2023-08-12T05:30:33.494Z,3.45
2023-08-12T05:33:18.581Z,3.45
2023-08-12T05:36:04.350Z,3.58
2023-08-12T05:38:49.999Z,3.20
2023-08-12T05:41:35.589Z,4.03
2023-08-12T05:44:20.971Z,3.28
2023-08-12T05:47:06.152Z,3.80
2023-08-12T05:49:51.394Z,3.70
2023-08-12T05:52:36.868Z,3.13
2023-08-12T05:55:22.745Z,3.90
2023-08-12T05:58:08.856Z,3.67
2023-08-12T06:00:54.146Z,3.70
2023-08-12T06:03:39.175Z,3.65
2023-08-12T06:06:24.704Z,3.47
2023-08-12T06:09:10.012Z,3.40
2023-08-12T06:11:55.976Z,3.65
2023-08-12T06:14:41.249Z,3.50
2023-08-12T06:17:26.992Z,4.22
2023-08-12T06:20:13.354Z,4.22
2023-08-12T06:22:58.459Z,3.35
2023-08-12T06:25:44.339Z,3.85
2023-08-12T06:28:29.710Z,4.38
2023-08-12T06:31:15.175Z,3.50
2023-08-12T06:34:00.753Z,3.72
2023-08-12T06:36:46.210Z,4.32
2023-08-12T06:39:31.149Z,4.57
2023-08-12T06:42:16.716Z,4.55
2023-08-12T06:45:05.002Z,3.85
2023-08-12T06:47:50.934Z,4.07
2023-08-12T06:50:36.668Z,4.72
2023-08-12T06:53:21.950Z,4.32
2023-08-12T06:56:07.706Z,4.28
2023-08-12T06:58:53.247Z,4.50
2023-08-12T07:01:38.805Z,4.47
2023-08-12T07:04:24.398Z,5.72
2023-08-12T07:07:09.789Z,5.15
2023-08-12T07:09:55.171Z,5.05
2023-08-12T07:12:40.637Z,4.90
2023-08-12T07:15:26.072Z,4.68
2023-08-12T07:18:11.248Z,5.10
2023-08-12T07:20:56.985Z,3.75
2023-08-12T07:23:51.477Z,5.82
2023-08-12T07:26:47.976Z,4.88
2023-08-12T07:29:32.830Z,4.60
2023-08-12T07:32:19.190Z,5.50
2023-08-12T07:35:04.570Z,5.43
2023-08-12T07:37:52.434Z,5.25
2023-08-12T07:40:39.138Z,5.32
2023-08-12T07:43:26.226Z,5.18
2023-08-12T07:46:11.628Z,5.88
2023-08-12T07:48:57.723Z,4.55
2023-08-12T07:51:43.690Z,5.22
2023-08-12T07:54:29.358Z,5.72
2023-08-12T07:57:14.706Z,5.85
2023-08-12T07:59:59.732Z,6.30
2023-08-12T08:02:45.162Z,6.20
2023-08-12T08:05:30.388Z,6.25
2023-08-12T08:08:15.586Z,6.10
2023-08-12T08:11:00.788Z,6.40
2023-08-12T08:13:46.420Z,5.93
2023-08-12T08:16:32.279Z,6.53
2023-08-12T08:22:05.133Z,6.28
2023-08-12T08:24:50.235Z,5.80
2023-08-12T08:27:35.204Z,6.35
2023-08-12T08:30:20.412Z,6.63
2023-08-12T08:33:06.475Z,6.53
2023-08-12T08:35:52.107Z,6.05
2023-08-12T08:38:38.112Z,6.53
2023-08-12T08:41:25.331Z,6.78
2023-08-12T08:44:10.997Z,7.10
2023-08-12T08:46:56.864Z,6.70
2023-08-12T08:49:43.104Z,7.25
2023-08-12T08:52:29.943Z,6.70
2023-08-12T08:55:15.896Z,7.38
2023-08-12T08:58:03.245Z,6.97
2023-08-12T09:00:51.375Z,6.82
2023-08-12T09:03:39.543Z,7.15
2023-08-12T09:06:27.268Z,7.07
2023-08-12T09:09:17.613Z,7.22
2023-08-12T09:12:05.460Z,6.35
2023-08-12T09:14:50.691Z,6.25
2023-08-12T09:17:36.041Z,5.35
2023-08-12T09:20:21.765Z,5.60
2023-08-12T09:23:10.281Z,4.93
2023-08-12T09:25:55.704Z,5.20
2023-08-12T09:28:43.371Z,4.70
2023-08-12T09:31:32.173Z,5.00
2023-08-12T09:34:18.896Z,5.10
2023-08-12T09:37:04.655Z,5.22
2023-08-12T09:39:51.125Z,4.90
2023-08-12T09:42:36.678Z,4.75
2023-08-12T09:45:25.695Z,5.07
2023-08-12T09:48:11.508Z,5.15
2023-08-12T09:50:57.897Z,5.03
2023-08-12T09:53:43.506Z,4.70
2023-08-12T09:56:33.695Z,4.90
2023-08-12T09:59:24.339Z,5.20
2023-08-12T10:02:33.745Z,4.65
2023-08-12T10:05:27.013Z,4.50
2023-08-12T10:08:15.181Z,4.43
2023-08-12T10:11:12.553Z,4.07
2023-08-12T10:13:58.877Z,5.18
2023-08-12T10:16:47.754Z,4.50
2023-08-12T10:19:34.223Z,4.50
2023-08-12T10:22:27.333Z,4.60
2023-08-12T10:25:15.566Z,4.45
2023-08-12T10:28:01.358Z,4.55
2023-08-12T10:30:47.707Z,4.82
2023-08-12T10:33:40.065Z,4.47
2023-08-12T10:36:28.921Z,4.60
2023-08-12T10:39:27.500Z,4.40
2023-08-12T10:42:49.778Z,4.80
2023-08-12T10:45:50.294Z,4.35
2023-08-12T10:48:35.819Z,5.00
2023-08-12T10:51:40.964Z,4.80
2023-08-12T10:54:34.867Z,4.68
2023-08-12T10:57:36.459Z,4.07
2023-08-12T11:00:25.789Z,4.10
2023-08-12T11:03:13.498Z,4.40
2023-08-12T11:06:00.572Z,4.70
2023-08-12T11:08:53.617Z,4.28
2023-08-12T11:11:59.888Z,4.45
2023-08-12T11:14:55.933Z,4.28
2023-08-12T11:17:42.900Z,3.95
2023-08-12T11:20:29.624Z,4.30
2023-08-12T11:23:15.762Z,4.03
2023-08-12T11:26:02.409Z,4.10
2023-08-12T11:28:48.241Z,3.70
2023-08-12T11:31:35.725Z,4.32
2023-08-12T11:34:23.920Z,4.32
2023-08-12T11:37:09.939Z,4.75
2023-08-12T11:39:55.669Z,4.65
2023-08-12T11:42:42.753Z,4.60
2023-08-12T11:45:33.816Z,5.03
2023-08-12T11:48:19.464Z,4.30
2023-08-12T11:51:05.008Z,4.45
2023-08-12T11:53:50.304Z,4.68
2023-08-12T11:56:35.411Z,3.90
2023-08-12T11:59:23.104Z,4.15
2023-08-12T12:02:08.677Z,3.85
2023-08-12T12:04:54.277Z,4.35
2023-08-12T12:07:40.130Z,4.53
2023-08-12T12:10:33.834Z,4.10
2023-08-12T12:13:21.187Z,3.92
2023-08-12T12:16:12.095Z,3.55
2023-08-12T12:19:00.232Z,4.15
2023-08-12T12:21:47.565Z,3.90
2023-08-12T12:24:45.678Z,3.80
2023-08-12T12:27:32.504Z,3.63
2023-08-12T12:33:03.757Z,3.55
2023-08-12T12:35:57.852Z,3.60
2023-08-12T12:38:44.688Z,3.70
2023-08-12T12:41:31.939Z,3.53
2023-08-12T12:44:18.722Z,3.55
2023-08-12T12:47:04.966Z,3.45
2023-08-12T12:49:53.497Z,3.35
2023-08-12T12:52:38.895Z,4.03
2023-08-12T12:55:24.705Z,3.60
2023-08-12T12:58:12.836Z,3.53
2023-08-12T13:00:58.402Z,4.20
2023-08-12T13:03:45.669Z,3.70
2023-08-12T13:06:31.761Z,3.60
2023-08-12T13:09:16.808Z,4.13
2023-08-12T13:12:02.414Z,3.50
2023-08-12T13:14:48.179Z,3.50
2023-08-12T13:17:33.634Z,3.22
2023-08-12T13:20:20.579Z,3.53
2023-08-12T13:23:06.065Z,3.00
2023-08-12T13:25:54.376Z,3.25
2023-08-12T13:28:39.853Z,3.25
2023-08-12T13:31:27.130Z,2.97
2023-08-12T13:34:11.936Z,3.20
2023-08-12T13:36:57.437Z,3.45
2023-08-12T13:39:42.740Z,3.33
2023-08-12T13:42:28.391Z,3.13
2023-08-12T13:45:14.584Z,3.30
2023-08-12T13:48:00.133Z,3.47
2023-08-12T13:50:46.228Z,3.28
2023-08-12T13:53:34.548Z,3.20
2023-08-12T13:56:22.000Z,3.35
2023-08-12T13:59:07.058Z,3.78
2023-08-12T14:01:52.443Z,3.08
2023-08-12T14:04:38.312Z,3.60
2023-08-12T14:07:26.167Z,3.40
2023-08-12T14:10:11.034Z,3.22
2023-08-12T14:12:56.626Z,3.30
2023-08-12T14:15:42.150Z,3.03
2023-08-12T14:18:28.077Z,3.38
2023-08-12T14:21:13.747Z,3.50
2023-08-12T14:23:59.051Z,3.45
2023-08-12T14:26:44.793Z,3.20
2023-08-12T14:29:31.330Z,3.42
2023-08-12T14:35:03.257Z,2.83
2023-08-12T14:37:49.317Z,2.97
2023-08-12T14:40:35.285Z,2.90
2023-08-12T14:43:21.017Z,2.75
2023-08-12T14:46:06.254Z,2.65
2023-08-12T14:48:54.827Z,2.67
2023-08-12T14:51:40.431Z,2.72
2023-08-12T14:54:25.665Z,2.40
2023-08-12T14:57:11.021Z,2.70
2023-08-12T14:59:56.273Z,2.47
2023-08-12T15:02:42.220Z,2.50
2023-08-12T15:05:27.406Z,2.50
2023-08-12T15:08:16.493Z,2.72
2023-08-12T15:11:02.403Z,2.88
2023-08-12T15:13:47.807Z,2.55
2023-08-12T15:16:33.178Z,2.17
2023-08-12T15:19:20.948Z,2.30
2023-08-12T15:22:06.603Z,2.05
2023-08-12T15:24:53.895Z,2.30
2023-08-12T15:27:40.092Z,2.03
2023-08-12T15:33:10.771Z,1.80
2023-08-12T15:35:56.392Z,2.35
2023-08-12T15:38:42.812Z,2.10
2023-08-12T15:41:28.198Z,1.70
2023-08-12T15:44:14.470Z,2.13
2023-08-12T15:46:59.404Z,2.10
2023-08-12T15:49:45.208Z,2.00
2023-08-12T15:52:33.966Z,2.00
2023-08-12T15:55:19.349Z,2.20
2023-08-12T15:58:05.022Z,2.10
2023-08-12T16:00:50.401Z,2.08
2023-08-12T16:03:36.821Z,2.20
2023-08-12T16:06:22.315Z,2.20
2023-08-12T16:09:18.288Z,2.33
2023-08-12T16:12:04.434Z,6.18
2023-08-12T16:14:49.764Z,2.85
2023-08-12T16:17:35.412Z,3.03
2023-08-12T16:20:20.756Z,2.30
2023-08-12T16:23:06.127Z,2.08
2023-08-12T16:25:51.637Z,1.73
2023-08-12T16:28:37.044Z,2.92
2023-08-12T16:31:23.229Z,2.20
2023-08-12T16:34:09.029Z,2.05
2023-08-12T16:37:10.392Z,2.22
2023-08-12T16:39:59.395Z,2.90
2023-08-12T16:42:44.605Z,2.53
2023-08-12T16:45:30.184Z,1.85
2023-08-12T16:48:15.771Z,2.90
2023-08-12T16:51:00.997Z,3.40
2023-08-12T16:53:46.624Z,2.28
2023-08-12T16:56:31.978Z,2.33
2023-08-12T16:59:17.589Z,2.20
2023-08-12T17:02:03.198Z,2.50
2023-08-12T17:04:48.448Z,6.75
2023-08-12T17:07:34.052Z,2.42
2023-08-12T17:10:19.551Z,2.00
2023-08-12T17:13:04.859Z,2.30
2023-08-12T17:15:50.449Z,2.22
2023-08-12T17:18:36.080Z,2.30
2023-08-12T17:21:21.053Z,2.30
2023-08-12T17:24:06.615Z,2.17
2023-08-12T17:26:53.266Z,2.20
2023-08-12T17:29:38.751Z,1.90
2023-08-12T17:32:26.025Z,2.30
2023-08-12T17:35:12.046Z,2.50
2023-08-12T17:37:57.333Z,2.30
2023-08-12T17:40:43.115Z,2.58
2023-08-12T17:43:28.422Z,2.35
2023-08-12T17:46:14.652Z,2.40
2023-08-12T17:48:59.932Z,2.58
2023-08-12T17:51:46.169Z,2.60
2023-08-12T17:54:31.724Z,2.35
2023-08-12T17:57:17.923Z,2.40
2023-08-12T18:00:03.938Z,2.60
2023-08-12T18:05:39.416Z,2.80
2023-08-12T18:11:12.454Z,2.40
2023-08-12T18:13:57.939Z,2.38
2023-08-12T18:16:43.386Z,2.33
2023-08-12T18:19:29.676Z,2.40
2023-08-12T18:22:15.478Z,2.55
2023-08-12T18:25:01.388Z,2.58
2023-08-12T18:27:47.697Z,3.92
2023-08-12T18:30:33.002Z,2.67
2023-08-12T18:33:18.340Z,2.58
2023-08-12T18:36:04.494Z,2.70
2023-08-12T18:38:53.025Z,2.60
2023-08-12T18:41:39.505Z,2.30
2023-08-12T18:44:24.765Z,2.95
2023-08-12T18:47:12.789Z,2.83
2023-08-12T18:49:58.170Z,2.35
2023-08-12T18:52:45.650Z,2.50
2023-08-12T18:55:33.311Z,2.70
2023-08-12T18:58:21.537Z,2.45
2023-08-12T19:01:06.821Z,2.65
2023-08-12T19:03:54.891Z,2.70
2023-08-12T19:06:40.464Z,2.60
2023-08-12T19:09:27.001Z,2.80
2023-08-12T19:12:14.030Z,2.55
2023-08-12T19:14:59.643Z,2.80
2023-08-12T19:17:46.694Z,2.90
2023-08-12T19:20:32.592Z,2.80
2023-08-12T19:23:21.715Z,2.83
2023-08-12T19:26:07.459Z,3.00
2023-08-12T19:28:52.997Z,2.67
2023-08-12T19:31:41.197Z,2.95
2023-08-12T19:34:26.996Z,3.13
2023-08-12T19:37:12.383Z,2.80
2023-08-12T19:40:00.314Z,2.60
2023-08-12T19:42:47.034Z,2.55
2023-08-12T19:45:33.045Z,2.50
2023-08-12T19:48:18.331Z,2.60
2023-08-12T19:51:04.769Z,2.58
2023-08-12T19:53:50.397Z,2.60
2023-08-12T19:56:39.046Z,2.60
2023-08-12T19:59:26.023Z,2.88
2023-08-12T20:02:36.569Z,2.50
2023-08-12T20:05:27.621Z,2.90
2023-08-12T20:08:13.918Z,2.30
2023-08-12T20:10:59.614Z,2.38
2023-08-12T20:13:45.112Z,2.30
2023-08-12T20:16:35.213Z,2.40
2023-08-12T20:19:21.319Z,2.70
2023-08-12T20:22:06.688Z,2.33
2023-08-12T20:24:52.630Z,2.92
2023-08-12T20:27:37.800Z,2.30
2023-08-12T20:30:23.533Z,2.45
2023-08-12T20:33:11.206Z,2.38
2023-08-12T20:35:56.679Z,2.40
2023-08-12T20:38:43.066Z,2.30
2023-08-12T20:41:29.129Z,2.33
2023-08-12T20:44:16.973Z,2.30
2023-08-12T20:47:09.636Z,2.45
2023-08-12T20:49:56.366Z,2.10
2023-08-12T20:52:43.877Z,1.85
2023-08-12T20:55:30.051Z,2.42
2023-08-12T20:58:15.542Z,2.03
2023-08-12T21:01:01.727Z,2.50
2023-08-12T21:03:47.622Z,2.00
2023-08-12T21:06:33.038Z,2.00
2023-08-12T21:09:24.070Z,1.98
2023-08-12T21:12:16.094Z,2.17
2023-08-12T21:15:02.777Z,1.85
2023-08-12T21:17:49.286Z,2.00
2023-08-12T21:20:44.920Z,2.40
2023-08-12T21:23:32.396Z,2.30
2023-08-12T21:26:17.644Z,2.75
2023-08-12T21:29:04.450Z,2.10
2023-08-12T21:31:50.178Z,1.95
2023-08-12T21:34:35.618Z,2.28
2023-08-12T21:37:20.703Z,2.30
2023-08-12T21:40:07.803Z,2.45
2023-08-12T21:42:53.333Z,2.40
2023-08-12T21:45:38.724Z,2.40
2023-08-12T21:48:24.004Z,2.33
2023-08-12T21:51:10.126Z,2.60
2023-08-12T21:53:55.342Z,2.30
2023-08-12T21:56:40.751Z,2.28
2023-08-12T21:59:27.121Z,2.22
2023-08-12T22:02:12.943Z,2.20
2023-08-12T22:04:58.663Z,2.33
2023-08-12T22:07:44.179Z,2.17
2023-08-12T22:10:29.449Z,2.30
2023-08-12T22:13:14.882Z,2.30
2023-08-12T22:16:00.229Z,2.20
2023-08-12T22:18:45.716Z,2.08
2023-08-12T22:21:31.168Z,2.30
2023-08-12T22:24:16.133Z,2.10
2023-08-12T22:27:01.397Z,2.40
2023-08-12T22:29:46.844Z,2.17
2023-08-12T22:32:32.160Z,2.78
2023-08-12T22:35:19.581Z,2.97
2023-08-12T22:38:04.794Z,2.60
2023-08-12T22:40:50.056Z,2.50
2023-08-12T22:43:35.135Z,2.20
2023-08-12T22:46:20.825Z,2.97
2023-08-12T22:49:05.850Z,2.70
2023-08-12T22:51:51.483Z,2.50
2023-08-12T22:54:36.833Z,2.50
2023-08-12T22:57:22.750Z,2.17
2023-08-12T23:00:08.452Z,2.72
2023-08-12T23:02:53.620Z,2.50
2023-08-12T23:05:38.565Z,2.45
2023-08-12T23:08:24.070Z,2.22
2023-08-12T23:11:09.165Z,2.33
2023-08-12T23:13:54.935Z,2.60
2023-08-12T23:16:40.679Z,2.30
2023-08-12T23:19:26.795Z,2.30
2023-08-12T23:22:12.419Z,2.40
2023-08-12T23:24:58.003Z,2.58
2023-08-12T23:27:46.214Z,2.45
2023-08-12T23:30:31.617Z,2.42
2023-08-12T23:33:16.874Z,2.50
2023-08-12T23:36:01.911Z,2.58
2023-08-12T23:38:47.383Z,3.33
2023-08-12T23:41:33.017Z,2.95
2023-08-12T23:44:18.712Z,2.42
2023-08-12T23:47:04.148Z,2.60
2023-08-12T23:49:50.769Z,2.95
2023-08-12T23:52:37.001Z,2.88
2023-08-12T23:55:22.333Z,2.50
2023-08-12T23:58:07.756Z,2.97
